Hoquiam, WA

7:05 AM PDT on September 18, 2014 (GMT -0700)
Bowerman | Change Station
CLOSE
Current Station
Airport
Location: Hoquiam,
Elevation: 13 ft
Nearby Weather Stations
4.0 Earthquake: Seabeck, Washington (1 day ago)  

Elev 13 ft 46.97 °N, 123.93 °W | Updated 12 minutes ago

Overcast
Overcast
59 °F
Feels Like 59 °F
N
6
Wind Variable Wind from South

Today
High -- | Low -- °F
--% Chance of Precip.
Yesterday
High -- | Low -- °F
Precip. -- in
6:57 AM 7:21 PM
Waning Crescent, 27% visible
Pressure 29.79 in
Visibility 7.0 miles
Clouds Overcast 3800 ft
Dew Point 58 °F
Humidity 96%
Rainfall 0.06 in
Snow Depth 0 in , 0 in , 0 in
UV 0 out of 12
Pollen .40 out of 12
PM2.5 Good
Flu Activity Not available.
METAR KHQM 181353Z AUTO 19005KT 7SM OVC038 15/14 A2977 RMK AO2 SLP086 T01500144

More Conditions Fewer Conditions

Pressure 29.79 in
Visibility 7.0 miles
Clouds Overcast 3800 ft
Dew Point 58 °F
Humidity 96%
Rainfall 0.06 in
Snow Depth 0 in , 0 in , 0 in
UV 0 out of 12
Pollen .40 out of 12
PM2.5 Good
Flu Activity Not available.
METAR KHQM 181353Z AUTO 19005KT 7SM OVC038 15/14 A2977 RMK AO2 SLP086 T01500144

More Conditions Fewer Conditions

10-Day Weather Forecast

Almanac

Astronomy

Sep. 18, 2014 Rise Set
Actual Time 6:57 AM PDT 7:21 PM PDT
Civil Twilight 6:26 AM PDT 7:51 PM PDT
Nautical Twilight 5:50 AM PDT 8:27 PM PDT
Astronomical Twilight 5:13 AM PDT 9:04 PM PDT
Moon 1:39 AM PDT 4:29 PM PDT
Length of Visible Light 13h 24m
Length of Day
12h 23m
Tomorrow will be 3m 20s shorter.
Waning Crescent, 27% of the Moon is Illuminated
Today
Waning Crescent
Sep 24
New
Oct 1
First Quarter
Oct 8
Full
Oct 15
Last Quarter

Today's Extremes

State Highs State Lows

Community

WunderPhotos

Upload Photos

1,754,354 photos uploaded!

Nearby

Air Quality

  Air Quality AQ Index Pollutant
Yesterday Good
PM2.5
Current Good
PM2.5

Snow Depth

Station Depth Elevation
Spencer Meadow 0 in 3400 ft
Harts Pass 0 in 6500 ft
Mf Nooksack 0 in 4980 ft
Surprise Lakes 1 in 4250 ft
Meadows Pass 0 in 3500 ft

Earthquake Activity

City Distance Mag. Time & Date
Seabeck, Washington 59 miles 4.0 3:06 AM PDT
2014-09-17
Morton, Washington 86 miles 3.0 5:43 AM PDT
2014-09-16
Minimum magnitude displayed is 2.5.

Coastal Water Temperatures

Place Temperature
Westport, WA 57.9 °F
Tacoma, WA 55.9 °F
Seattle, WA 55.9 °F
Astoria, OR 64.0 °F

Nearby Weather Stations